sensor_id;sensor_type;location;lat;lon;timestamp;temperature;humidity
59075;DHT22;44860;53.020;6.738;2023-06-26T00:02:13;22.50;88.60
59075;DHT22;44860;53.020;6.738;2023-06-26T00:04:39;22.50;88.80
59075;DHT22;44860;53.020;6.738;2023-06-26T00:07:05;22.50;88.80
59075;DHT22;44860;53.020;6.738;2023-06-26T00:09:31;22.50;88.80
59075;DHT22;44860;53.020;6.738;2023-06-26T00:11:56;22.50;89.30
59075;DHT22;44860;53.020;6.738;2023-06-26T00:14:22;22.40;89.50
59075;DHT22;44860;53.020;6.738;2023-06-26T00:16:48;22.40;89.60
59075;DHT22;44860;53.020;6.738;2023-06-26T00:19:16;22.40;89.80
59075;DHT22;44860;53.020;6.738;2023-06-26T00:21:42;22.40;90.10
59075;DHT22;44860;53.020;6.738;2023-06-26T00:24:12;22.40;90.30
59075;DHT22;44860;53.020;6.738;2023-06-26T00:26:38;22.30;90.40
59075;DHT22;44860;53.020;6.738;2023-06-26T00:29:04;22.30;90.40
59075;DHT22;44860;53.020;6.738;2023-06-26T00:31:30;22.30;90.60
59075;DHT22;44860;53.020;6.738;2023-06-26T00:33:56;22.30;90.80
59075;DHT22;44860;53.020;6.738;2023-06-26T00:36:21;22.30;91.10
59075;DHT22;44860;53.020;6.738;2023-06-26T00:38:52;22.30;91.20
59075;DHT22;44860;53.020;6.738;2023-06-26T00:41:19;22.30;91.40
59075;DHT22;44860;53.020;6.738;2023-06-26T00:43:45;22.30;91.30
59075;DHT22;44860;53.020;6.738;2023-06-26T00:46:12;22.30;91.40
59075;DHT22;44860;53.020;6.738;2023-06-26T00:48:39;22.30;91.40
59075;DHT22;44860;53.020;6.738;2023-06-26T00:51:06;22.30;91.70
59075;DHT22;44860;53.020;6.738;2023-06-26T00:53:33;22.30;91.70
59075;DHT22;44860;53.020;6.738;2023-06-26T00:55:59;22.30;91.80
59075;DHT22;44860;53.020;6.738;2023-06-26T00:58:25;22.30;91.90
59075;DHT22;44860;53.020;6.738;2023-06-26T01:00:52;22.30;92.10
59075;DHT22;44860;53.020;6.738;2023-06-26T01:03:19;22.30;91.90
59075;DHT22;44860;53.020;6.738;2023-06-26T01:05:45;22.30;91.90
59075;DHT22;44860;53.020;6.738;2023-06-26T01:08:16;22.20;92.00
59075;DHT22;44860;53.020;6.738;2023-06-26T01:10:42;22.20;92.10
59075;DHT22;44860;53.020;6.738;2023-06-26T01:13:08;22.20;92.40
59075;DHT22;44860;53.020;6.738;2023-06-26T01:15:34;22.20;92.50
59075;DHT22;44860;53.020;6.738;2023-06-26T01:18:01;22.20;92.70
59075;DHT22;44860;53.020;6.738;2023-06-26T01:20:36;22.20;93.00
59075;DHT22;44860;53.020;6.738;2023-06-26T01:26:20;22.10;93.30
59075;DHT22;44860;53.020;6.738;2023-06-26T01:28:47;22.10;93.30
59075;DHT22;44860;53.020;6.738;2023-06-26T01:31:13;22.10;93.80
59075;DHT22;44860;53.020;6.738;2023-06-26T01:33:41;22.10;94.10
59075;DHT22;44860;53.020;6.738;2023-06-26T01:36:07;22.00;94.30
59075;DHT22;44860;53.020;6.738;2023-06-26T01:38:33;22.10;94.30
59075;DHT22;44860;53.020;6.738;2023-06-26T01:41:00;22.00;94.40
59075;DHT22;44860;53.020;6.738;2023-06-26T01:43:57;22.00;94.40
59075;DHT22;44860;53.020;6.738;2023-06-26T01:46:54;22.00;94.60
59075;DHT22;44860;53.020;6.738;2023-06-26T01:52:20;22.00;94.90
59075;DHT22;44860;53.020;6.738;2023-06-26T01:54:54;22.00;94.90
59075;DHT22;44860;53.020;6.738;2023-06-26T01:57:21;22.00;95.30
59075;DHT22;44860;53.020;6.738;2023-06-26T01:59:48;22.00;95.30
59075;DHT22;44860;53.020;6.738;2023-06-26T02:02:15;22.00;95.80
59075;DHT22;44860;53.020;6.738;2023-06-26T02:04:41;22.00;95.20
59075;DHT22;44860;53.020;6.738;2023-06-26T02:07:06;22.00;95.50
59075;DHT22;44860;53.020;6.738;2023-06-26T02:09:35;22.00;95.60
59075;DHT22;44860;53.020;6.738;2023-06-26T02:12:00;22.00;95.60
59075;DHT22;44860;53.020;6.738;2023-06-26T02:14:26;22.00;95.80
59075;DHT22;44860;53.020;6.738;2023-06-26T02:16:52;21.90;95.90
59075;DHT22;44860;53.020;6.738;2023-06-26T02:19:17;21.90;95.90
59075;DHT22;44860;53.020;6.738;2023-06-26T02:21:49;21.90;96.00
59075;DHT22;44860;53.020;6.738;2023-06-26T02:24:15;21.90;96.20
59075;DHT22;44860;53.020;6.738;2023-06-26T02:26:41;21.90;96.40
59075;DHT22;44860;53.020;6.738;2023-06-26T02:29:07;21.90;96.50
59075;DHT22;44860;53.020;6.738;2023-06-26T02:31:33;21.80;96.50
59075;DHT22;44860;53.020;6.738;2023-06-26T02:33:58;21.90;96.60
59075;DHT22;44860;53.020;6.738;2023-06-26T02:36:24;21.80;96.60
59075;DHT22;44860;53.020;6.738;2023-06-26T02:38:50;21.80;96.50
59075;DHT22;44860;53.020;6.738;2023-06-26T02:41:15;21.80;96.60
59075;DHT22;44860;53.020;6.738;2023-06-26T02:43:41;21.80;96.50
59075;DHT22;44860;53.020;6.738;2023-06-26T02:46:07;21.80;96.30
59075;DHT22;44860;53.020;6.738;2023-06-26T02:48:32;21.80;96.40
59075;DHT22;44860;53.020;6.738;2023-06-26T02:50:58;21.80;96.40
59075;DHT22;44860;53.020;6.738;2023-06-26T02:53:24;21.90;96.10
59075;DHT22;44860;53.020;6.738;2023-06-26T02:55:50;21.90;96.00
59075;DHT22;44860;53.020;6.738;2023-06-26T02:58:16;21.90;95.70
59075;DHT22;44860;53.020;6.738;2023-06-26T03:00:41;21.90;95.50
59075;DHT22;44860;53.020;6.738;2023-06-26T03:03:09;21.90;95.40
59075;DHT22;44860;53.020;6.738;2023-06-26T03:05:34;21.90;95.40
59075;DHT22;44860;53.020;6.738;2023-06-26T03:08:00;21.90;95.10
59075;DHT22;44860;53.020;6.738;2023-06-26T03:10:26;21.90;95.30
59075;DHT22;44860;53.020;6.738;2023-06-26T03:12:51;21.90;95.50
59075;DHT22;44860;53.020;6.738;2023-06-26T03:15:17;21.90;95.50
59075;DHT22;44860;53.020;6.738;2023-06-26T03:17:44;21.80;95.50
59075;DHT22;44860;53.020;6.738;2023-06-26T03:20:10;21.80;95.60
59075;DHT22;44860;53.020;6.738;2023-06-26T03:22:36;21.80;95.60
59075;DHT22;44860;53.020;6.738;2023-06-26T03:25:03;21.80;95.70
59075;DHT22;44860;53.020;6.738;2023-06-26T03:27:28;21.80;95.70
59075;DHT22;44860;53.020;6.738;2023-06-26T03:29:54;21.80;96.20
59075;DHT22;44860;53.020;6.738;2023-06-26T03:32:20;21.80;95.80
59075;DHT22;44860;53.020;6.738;2023-06-26T03:34:45;21.80;95.90
59075;DHT22;44860;53.020;6.738;2023-06-26T03:37:11;21.80;96.00
59075;DHT22;44860;53.020;6.738;2023-06-26T03:39:37;21.80;96.20
59075;DHT22;44860;53.020;6.738;2023-06-26T03:42:03;21.80;96.30
59075;DHT22;44860;53.020;6.738;2023-06-26T03:44:29;21.80;96.50
59075;DHT22;44860;53.020;6.738;2023-06-26T03:46:54;21.70;96.80
59075;DHT22;44860;53.020;6.738;2023-06-26T03:49:20;21.70;96.90
59075;DHT22;44860;53.020;6.738;2023-06-26T03:51:46;21.80;97.10
59075;DHT22;44860;53.020;6.738;2023-06-26T03:54:12;21.70;97.10
59075;DHT22;44860;53.020;6.738;2023-06-26T03:56:38;21.80;97.40
59075;DHT22;44860;53.020;6.738;2023-06-26T03:59:04;21.80;97.60
59075;DHT22;44860;53.020;6.738;2023-06-26T04:01:29;21.70;97.90
59075;DHT22;44860;53.020;6.738;2023-06-26T04:03:55;21.70;98.20
59075;DHT22;44860;53.020;6.738;2023-06-26T04:06:21;21.70;98.30
59075;DHT22;44860;53.020;6.738;2023-06-26T04:08:46;21.70;98.60
59075;DHT22;44860;53.020;6.738;2023-06-26T04:11:13;21.70;98.80
59075;DHT22;44860;53.020;6.738;2023-06-26T04:13:39;21.70;99.10
59075;DHT22;44860;53.020;6.738;2023-06-26T04:16:05;21.70;99.30
59075;DHT22;44860;53.020;6.738;2023-06-26T04:18:32;21.70;99.40
59075;DHT22;44860;53.020;6.738;2023-06-26T04:21:08;21.70;99.50
59075;DHT22;44860;53.020;6.738;2023-06-26T04:23:35;21.70;99.70
59075;DHT22;44860;53.020;6.738;2023-06-26T04:26:01;21.70;99.90
59075;DHT22;44860;53.020;6.738;2023-06-26T04:28:28;21.70;99.90
59075;DHT22;44860;53.020;6.738;2023-06-26T04:30:54;21.70;99.90
59075;DHT22;44860;53.020;6.738;2023-06-26T04:33:19;21.70;99.90
59075;DHT22;44860;53.020;6.738;2023-06-26T04:35:45;21.70;99.90
59075;DHT22;44860;53.020;6.738;2023-06-26T04:38:14;21.70;99.90
59075;DHT22;44860;53.020;6.738;2023-06-26T04:40:41;21.70;99.90
59075;DHT22;44860;53.020;6.738;2023-06-26T04:43:06;21.70;99.90
59075;DHT22;44860;53.020;6.738;2023-06-26T04:45:32;21.70;99.90
59075;DHT22;44860;53.020;6.738;2023-06-26T04:47:58;21.70;99.90
59075;DHT22;44860;53.020;6.738;2023-06-26T04:50:25;21.70;99.90
59075;DHT22;44860;53.020;6.738;2023-06-26T04:52:51;21.70;99.90
59075;DHT22;44860;53.020;6.738;2023-06-26T04:55:17;21.70;99.90
59075;DHT22;44860;53.020;6.738;2023-06-26T04:57:42;21.70;99.90
59075;DHT22;44860;53.020;6.738;2023-06-26T05:00:08;21.70;99.90
59075;DHT22;44860;53.020;6.738;2023-06-26T05:02:36;21.80;99.90
59075;DHT22;44860;53.020;6.738;2023-06-26T05:05:02;21.70;99.90
59075;DHT22;44860;53.020;6.738;2023-06-26T05:07:28;21.80;99.90
59075;DHT22;44860;53.020;6.738;2023-06-26T05:09:53;21.80;99.90
59075;DHT22;44860;53.020;6.738;2023-06-26T05:12:19;21.80;99.90
59075;DHT22;44860;53.020;6.738;2023-06-26T05:14:45;21.80;99.90
59075;DHT22;44860;53.020;6.738;2023-06-26T05:17:13;21.90;99.90
59075;DHT22;44860;53.020;6.738;2023-06-26T05:19:39;21.80;99.90
59075;DHT22;44860;53.020;6.738;2023-06-26T05:22:05;21.80;99.90
59075;DHT22;44860;53.020;6.738;2023-06-26T05:24:37;21.80;99.90
59075;DHT22;44860;53.020;6.738;2023-06-26T05:27:04;21.80;99.90
59075;DHT22;44860;53.020;6.738;2023-06-26T05:29:31;21.80;99.90
59075;DHT22;44860;53.020;6.738;2023-06-26T05:31:57;21.90;99.90
59075;DHT22;44860;53.020;6.738;2023-06-26T05:34:23;21.80;99.90
59075;DHT22;44860;53.020;6.738;2023-06-26T05:36:55;21.90;99.90
59075;DHT22;44860;53.020;6.738;2023-06-26T05:39:22;21.80;99.90
59075;DHT22;44860;53.020;6.738;2023-06-26T05:41:49;21.80;99.90
59075;DHT22;44860;53.020;6.738;2023-06-26T05:44:14;21.80;99.90
59075;DHT22;44860;53.020;6.738;2023-06-26T05:46:40;21.80;99.90
59075;DHT22;44860;53.020;6.738;2023-06-26T05:49:06;21.80;99.90
59075;DHT22;44860;53.020;6.738;2023-06-26T05:51:32;21.80;99.90
59075;DHT22;44860;53.020;6.738;2023-06-26T05:53:58;21.80;99.90
59075;DHT22;44860;53.020;6.738;2023-06-26T05:56:24;21.80;99.90
59075;DHT22;44860;53.020;6.738;2023-06-26T05:58:50;21.70;99.90
59075;DHT22;44860;53.020;6.738;2023-06-26T06:01:17;21.70;99.90
59075;DHT22;44860;53.020;6.738;2023-06-26T06:03:42;21.70;99.90
59075;DHT22;44860;53.020;6.738;2023-06-26T06:06:08;21.60;99.90
59075;DHT22;44860;53.020;6.738;2023-06-26T06:08:34;21.60;99.90
59075;DHT22;44860;53.020;6.738;2023-06-26T06:11:00;21.60;99.90
59075;DHT22;44860;53.020;6.738;2023-06-26T06:13:26;21.50;99.90
59075;DHT22;44860;53.020;6.738;2023-06-26T06:15:51;21.50;99.90
59075;DHT22;44860;53.020;6.738;2023-06-26T06:18:17;21.50;99.90
59075;DHT22;44860;53.020;6.738;2023-06-26T06:20:43;21.50;99.90
59075;DHT22;44860;53.020;6.738;2023-06-26T06:23:08;21.50;99.90
59075;DHT22;44860;53.020;6.738;2023-06-26T06:25:34;21.40;99.90
59075;DHT22;44860;53.020;6.738;2023-06-26T06:28:00;21.40;99.90
59075;DHT22;44860;53.020;6.738;2023-06-26T06:30:26;21.40;99.90
59075;DHT22;44860;53.020;6.738;2023-06-26T06:32:53;21.40;99.90
59075;DHT22;44860;53.020;6.738;2023-06-26T06:35:19;21.30;99.90
59075;DHT22;44860;53.020;6.738;2023-06-26T06:37:44;21.30;99.90
59075;DHT22;44860;53.020;6.738;2023-06-26T06:40:10;21.30;99.90
59075;DHT22;44860;53.020;6.738;2023-06-26T06:42:36;21.20;99.90
59075;DHT22;44860;53.020;6.738;2023-06-26T06:45:03;21.20;99.90
59075;DHT22;44860;53.020;6.738;2023-06-26T06:47:29;21.20;99.90
59075;DHT22;44860;53.020;6.738;2023-06-26T06:49:55;21.20;99.90
59075;DHT22;44860;53.020;6.738;2023-06-26T06:52:21;21.10;99.90
59075;DHT22;44860;53.020;6.738;2023-06-26T06:54:54;21.10;99.90
59075;DHT22;44860;53.020;6.738;2023-06-26T06:57:24;21.10;99.90
59075;DHT22;44860;53.020;6.738;2023-06-26T06:59:50;21.10;99.90
59075;DHT22;44860;53.020;6.738;2023-06-26T07:02:17;21.20;99.90
59075;DHT22;44860;53.020;6.738;2023-06-26T07:04:43;21.20;99.90
59075;DHT22;44860;53.020;6.738;2023-06-26T07:07:08;21.30;99.90
59075;DHT22;44860;53.020;6.738;2023-06-26T07:09:35;21.30;99.90
59075;DHT22;44860;53.020;6.738;2023-06-26T07:12:01;21.30;99.90
59075;DHT22;44860;53.020;6.738;2023-06-26T07:14:28;21.30;99.90
59075;DHT22;44860;53.020;6.738;2023-06-26T07:16:53;21.40;99.90
59075;DHT22;44860;53.020;6.738;2023-06-26T07:19:19;21.40;99.90
59075;DHT22;44860;53.020;6.738;2023-06-26T07:21:45;21.50;99.90
59075;DHT22;44860;53.020;6.738;2023-06-26T07:24:11;21.40;99.10
59075;DHT22;44860;53.020;6.738;2023-06-26T07:26:37;21.50;98.20
59075;DHT22;44860;53.020;6.738;2023-06-26T07:29:03;21.40;97.40
59075;DHT22;44860;53.020;6.738;2023-06-26T07:31:29;21.50;96.60
59075;DHT22;44860;53.020;6.738;2023-06-26T07:33:55;21.50;96.30
59075;DHT22;44860;53.020;6.738;2023-06-26T07:36:20;21.60;95.60
59075;DHT22;44860;53.020;6.738;2023-06-26T07:38:46;21.60;95.70
59075;DHT22;44860;53.020;6.738;2023-06-26T07:41:12;21.60;95.70
59075;DHT22;44860;53.020;6.738;2023-06-26T07:43:37;21.70;95.90
59075;DHT22;44860;53.020;6.738;2023-06-26T07:46:03;21.70;96.30
59075;DHT22;44860;53.020;6.738;2023-06-26T07:48:28;21.80;96.50
59075;DHT22;44860;53.020;6.738;2023-06-26T07:50:54;21.90;96.20
59075;DHT22;44860;53.020;6.738;2023-06-26T07:53:20;21.90;96.30
59075;DHT22;44860;53.020;6.738;2023-06-26T07:55:46;21.90;96.30
59075;DHT22;44860;53.020;6.738;2023-06-26T07:58:11;21.90;96.40
59075;DHT22;44860;53.020;6.738;2023-06-26T08:00:37;22.00;96.60
59075;DHT22;44860;53.020;6.738;2023-06-26T08:03:03;22.10;96.40
59075;DHT22;44860;53.020;6.738;2023-06-26T08:05:29;22.10;96.10
59075;DHT22;44860;53.020;6.738;2023-06-26T08:07:55;22.20;95.30
59075;DHT22;44860;53.020;6.738;2023-06-26T08:10:21;22.20;94.40
59075;DHT22;44860;53.020;6.738;2023-06-26T08:12:46;22.30;94.20
59075;DHT22;44860;53.020;6.738;2023-06-26T08:15:14;22.30;93.90
59075;DHT22;44860;53.020;6.738;2023-06-26T08:17:39;22.30;93.40
59075;DHT22;44860;53.020;6.738;2023-06-26T08:20:06;22.30;91.30
59075;DHT22;44860;53.020;6.738;2023-06-26T08:22:33;22.30;89.80
59075;DHT22;44860;53.020;6.738;2023-06-26T08:24:59;22.30;88.80
59075;DHT22;44860;53.020;6.738;2023-06-26T08:27:25;22.30;88.10
59075;DHT22;44860;53.020;6.738;2023-06-26T08:29:51;22.40;88.50
59075;DHT22;44860;53.020;6.738;2023-06-26T08:32:16;22.30;88.10
59075;DHT22;44860;53.020;6.738;2023-06-26T08:34:45;22.40;87.50
59075;DHT22;44860;53.020;6.738;2023-06-26T08:37:11;22.40;87.40
59075;DHT22;44860;53.020;6.738;2023-06-26T08:39:37;22.40;87.30
59075;DHT22;44860;53.020;6.738;2023-06-26T08:42:02;22.50;86.50
59075;DHT22;44860;53.020;6.738;2023-06-26T08:44:28;22.50;85.60
59075;DHT22;44860;53.020;6.738;2023-06-26T08:46:54;22.60;85.90
59075;DHT22;44860;53.020;6.738;2023-06-26T08:54:56;22.50;86.60
59075;DHT22;44860;53.020;6.738;2023-06-26T08:57:23;22.60;85.90
59075;DHT22;44860;53.020;6.738;2023-06-26T08:59:51;22.60;85.60
59075;DHT22;44860;53.020;6.738;2023-06-26T09:02:17;22.70;83.40
59075;DHT22;44860;53.020;6.738;2023-06-26T09:04:43;22.60;81.60
59075;DHT22;44860;53.020;6.738;2023-06-26T09:07:09;22.60;81.40
59075;DHT22;44860;53.020;6.738;2023-06-26T09:09:35;22.60;81.10
59075;DHT22;44860;53.020;6.738;2023-06-26T09:12:02;22.70;80.80
59075;DHT22;44860;53.020;6.738;2023-06-26T09:14:29;22.60;81.10
59075;DHT22;44860;53.020;6.738;2023-06-26T09:16:55;22.60;79.90
59075;DHT22;44860;53.020;6.738;2023-06-26T09:19:21;22.70;80.80
59075;DHT22;44860;53.020;6.738;2023-06-26T09:21:49;22.70;79.60
59075;DHT22;44860;53.020;6.738;2023-06-26T09:24:16;22.70;79.60
59075;DHT22;44860;53.020;6.738;2023-06-26T09:26:42;22.70;80.20
59075;DHT22;44860;53.020;6.738;2023-06-26T09:29:09;22.70;80.10
59075;DHT22;44860;53.020;6.738;2023-06-26T09:31:37;22.70;80.00
59075;DHT22;44860;53.020;6.738;2023-06-26T09:34:03;22.70;79.90
59075;DHT22;44860;53.020;6.738;2023-06-26T09:36:30;22.70;80.00
59075;DHT22;44860;53.020;6.738;2023-06-26T09:39:03;22.70;79.40
59075;DHT22;44860;53.020;6.738;2023-06-26T09:41:30;22.80;79.10
59075;DHT22;44860;53.020;6.738;2023-06-26T09:44:01;22.80;77.20
59075;DHT22;44860;53.020;6.738;2023-06-26T09:46:29;22.80;74.80
59075;DHT22;44860;53.020;6.738;2023-06-26T09:49:06;22.80;74.00
59075;DHT22;44860;53.020;6.738;2023-06-26T09:51:32;22.70;73.50
59075;DHT22;44860;53.020;6.738;2023-06-26T09:53:59;22.70;72.90
59075;DHT22;44860;53.020;6.738;2023-06-26T09:56:27;22.70;72.60
59075;DHT22;44860;53.020;6.738;2023-06-26T09:58:58;22.70;72.10
59075;DHT22;44860;53.020;6.738;2023-06-26T10:01:25;22.70;71.70
59075;DHT22;44860;53.020;6.738;2023-06-26T10:03:51;22.80;72.50
59075;DHT22;44860;53.020;6.738;2023-06-26T10:06:34;22.80;72.50
59075;DHT22;44860;53.020;6.738;2023-06-26T10:09:03;22.80;72.20
59075;DHT22;44860;53.020;6.738;2023-06-26T10:11:40;22.80;72.40
59075;DHT22;44860;53.020;6.738;2023-06-26T10:14:07;22.80;71.70
59075;DHT22;44860;53.020;6.738;2023-06-26T10:16:36;22.90;70.30
59075;DHT22;44860;53.020;6.738;2023-06-26T10:19:06;22.90;69.30
59075;DHT22;44860;53.020;6.738;2023-06-26T10:21:34;22.90;66.90
59075;DHT22;44860;53.020;6.738;2023-06-26T10:24:00;23.00;65.70
59075;DHT22;44860;53.020;6.738;2023-06-26T10:26:28;23.00;63.80
59075;DHT22;44860;53.020;6.738;2023-06-26T10:28:56;23.10;63.30
59075;DHT22;44860;53.020;6.738;2023-06-26T10:31:26;23.20;63.50
59075;DHT22;44860;53.020;6.738;2023-06-26T10:33:52;23.10;64.40
59075;DHT22;44860;53.020;6.738;2023-06-26T10:36:20;23.10;63.30
59075;DHT22;44860;53.020;6.738;2023-06-26T10:38:50;23.00;62.70
59075;DHT22;44860;53.020;6.738;2023-06-26T10:41:20;23.00;62.80
59075;DHT22;44860;53.020;6.738;2023-06-26T10:46:24;23.10;62.30
59075;DHT22;44860;53.020;6.738;2023-06-26T10:48:57;23.10;62.10
59075;DHT22;44860;53.020;6.738;2023-06-26T10:51:24;23.10;60.00
59075;DHT22;44860;53.020;6.738;2023-06-26T10:53:57;23.00;58.50
59075;DHT22;44860;53.020;6.738;2023-06-26T10:56:47;23.00;58.60
59075;DHT22;44860;53.020;6.738;2023-06-26T10:59:20;23.00;59.10
59075;DHT22;44860;53.020;6.738;2023-06-26T11:02:06;23.20;56.40
59075;DHT22;44860;53.020;6.738;2023-06-26T11:04:53;23.30;53.70
59075;DHT22;44860;53.020;6.738;2023-06-26T11:07:27;23.30;49.20
59075;DHT22;44860;53.020;6.738;2023-06-26T11:10:08;23.30;49.00
59075;DHT22;44860;53.020;6.738;2023-06-26T11:12:44;23.40;50.30
59075;DHT22;44860;53.020;6.738;2023-06-26T11:15:17;23.40;50.20
59075;DHT22;44860;53.020;6.738;2023-06-26T11:17:44;23.50;51.50
59075;DHT22;44860;53.020;6.738;2023-06-26T11:20:12;23.50;51.90
59075;DHT22;44860;53.020;6.738;2023-06-26T11:22:40;23.50;52.00
59075;DHT22;44860;53.020;6.738;2023-06-26T11:25:07;23.50;53.30
59075;DHT22;44860;53.020;6.738;2023-06-26T11:27:43;23.50;54.50
59075;DHT22;44860;53.020;6.738;2023-06-26T11:30:11;23.50;55.40
59075;DHT22;44860;53.020;6.738;2023-06-26T11:32:38;23.60;55.50
59075;DHT22;44860;53.020;6.738;2023-06-26T11:35:04;23.60;55.40
59075;DHT22;44860;53.020;6.738;2023-06-26T11:37:33;23.50;54.80
59075;DHT22;44860;53.020;6.738;2023-06-26T11:39:59;23.50;54.20
59075;DHT22;44860;53.020;6.738;2023-06-26T11:42:25;23.50;53.80
59075;DHT22;44860;53.020;6.738;2023-06-26T11:44:51;23.50;54.50
59075;DHT22;44860;53.020;6.738;2023-06-26T11:47:19;23.60;53.50
59075;DHT22;44860;53.020;6.738;2023-06-26T11:49:47;23.70;51.20
59075;DHT22;44860;53.020;6.738;2023-06-26T11:52:13;23.70;49.40
59075;DHT22;44860;53.020;6.738;2023-06-26T11:54:39;23.60;47.60
59075;DHT22;44860;53.020;6.738;2023-06-26T11:57:05;23.60;47.00
59075;DHT22;44860;53.020;6.738;2023-06-26T11:59:37;23.60;48.00
59075;DHT22;44860;53.020;6.738;2023-06-26T12:02:10;23.70;48.10
59075;DHT22;44860;53.020;6.738;2023-06-26T12:04:40;23.70;49.50
59075;DHT22;44860;53.020;6.738;2023-06-26T12:07:07;23.70;49.80
59075;DHT22;44860;53.020;6.738;2023-06-26T12:09:42;23.70;48.60
59075;DHT22;44860;53.020;6.738;2023-06-26T12:12:10;23.60;47.50
59075;DHT22;44860;53.020;6.738;2023-06-26T12:14:36;23.50;46.70
59075;DHT22;44860;53.020;6.738;2023-06-26T12:17:11;23.50;46.60
59075;DHT22;44860;53.020;6.738;2023-06-26T12:19:38;23.50;47.50
59075;DHT22;44860;53.020;6.738;2023-06-26T12:22:08;23.50;48.30
59075;DHT22;44860;53.020;6.738;2023-06-26T12:24:36;23.50;48.10
59075;DHT22;44860;53.020;6.738;2023-06-26T12:27:08;23.60;47.90
59075;DHT22;44860;53.020;6.738;2023-06-26T12:29:34;23.60;48.20
59075;DHT22;44860;53.020;6.738;2023-06-26T12:32:00;23.60;48.20
59075;DHT22;44860;53.020;6.738;2023-06-26T12:34:32;23.50;48.10
59075;DHT22;44860;53.020;6.738;2023-06-26T12:37:03;23.60;48.20
59075;DHT22;44860;53.020;6.738;2023-06-26T12:39:29;23.60;44.80
59075;DHT22;44860;53.020;6.738;2023-06-26T12:41:56;23.60;42.80
59075;DHT22;44860;53.020;6.738;2023-06-26T12:44:29;23.70;43.20
59075;DHT22;44860;53.020;6.738;2023-06-26T12:46:59;23.70;44.00
59075;DHT22;44860;53.020;6.738;2023-06-26T12:49:35;23.70;44.50
59075;DHT22;44860;53.020;6.738;2023-06-26T12:52:03;23.80;42.50
59075;DHT22;44860;53.020;6.738;2023-06-26T12:54:29;23.80;41.40
59075;DHT22;44860;53.020;6.738;2023-06-26T12:56:55;23.90;41.80
59075;DHT22;44860;53.020;6.738;2023-06-26T12:59:21;23.90;42.80
59075;DHT22;44860;53.020;6.738;2023-06-26T13:01:47;23.90;41.90
59075;DHT22;44860;53.020;6.738;2023-06-26T13:04:13;23.90;41.30
59075;DHT22;44860;53.020;6.738;2023-06-26T13:06:39;23.90;41.70
59075;DHT22;44860;53.020;6.738;2023-06-26T13:09:05;23.90;42.10
59075;DHT22;44860;53.020;6.738;2023-06-26T13:11:31;23.90;41.90
59075;DHT22;44860;53.020;6.738;2023-06-26T13:13:58;23.90;43.40
59075;DHT22;44860;53.020;6.738;2023-06-26T13:16:23;23.80;43.30
59075;DHT22;44860;53.020;6.738;2023-06-26T13:18:49;23.80;43.30
59075;DHT22;44860;53.020;6.738;2023-06-26T13:21:17;23.70;44.00
59075;DHT22;44860;53.020;6.738;2023-06-26T13:23:44;23.60;44.00
59075;DHT22;44860;53.020;6.738;2023-06-26T13:26:10;23.60;44.30
59075;DHT22;44860;53.020;6.738;2023-06-26T13:28:36;23.60;43.70
59075;DHT22;44860;53.020;6.738;2023-06-26T13:31:02;23.70;43.80
59075;DHT22;44860;53.020;6.738;2023-06-26T13:33:28;23.70;43.40
59075;DHT22;44860;53.020;6.738;2023-06-26T13:35:54;23.70;43.00
59075;DHT22;44860;53.020;6.738;2023-06-26T13:38:21;23.50;42.80
59075;DHT22;44860;53.020;6.738;2023-06-26T13:40:58;23.50;43.10
59075;DHT22;44860;53.020;6.738;2023-06-26T13:43:26;23.40;43.80
59075;DHT22;44860;53.020;6.738;2023-06-26T13:45:52;23.40;44.00
59075;DHT22;44860;53.020;6.738;2023-06-26T13:48:18;23.40;42.50
59075;DHT22;44860;53.020;6.738;2023-06-26T13:50:45;23.40;42.00
59075;DHT22;44860;53.020;6.738;2023-06-26T13:53:11;23.50;42.00
59075;DHT22;44860;53.020;6.738;2023-06-26T13:55:37;23.50;42.40
59075;DHT22;44860;53.020;6.738;2023-06-26T13:58:04;23.50;43.10
59075;DHT22;44860;53.020;6.738;2023-06-26T14:00:31;23.50;43.00
59075;DHT22;44860;53.020;6.738;2023-06-26T14:02:56;23.60;42.70
59075;DHT22;44860;53.020;6.738;2023-06-26T14:05:22;23.60;42.50
59075;DHT22;44860;53.020;6.738;2023-06-26T14:07:48;23.60;42.20
59075;DHT22;44860;53.020;6.738;2023-06-26T14:10:14;23.60;42.70
59075;DHT22;44860;53.020;6.738;2023-06-26T14:12:40;23.60;43.30
59075;DHT22;44860;53.020;6.738;2023-06-26T14:15:06;23.60;43.10
59075;DHT22;44860;53.020;6.738;2023-06-26T14:17:32;23.70;42.70
59075;DHT22;44860;53.020;6.738;2023-06-26T14:19:58;23.80;41.50
59075;DHT22;44860;53.020;6.738;2023-06-26T14:22:25;23.70;40.90
59075;DHT22;44860;53.020;6.738;2023-06-26T14:24:50;23.80;42.00
59075;DHT22;44860;53.020;6.738;2023-06-26T14:27:16;23.80;42.50
59075;DHT22;44860;53.020;6.738;2023-06-26T14:29:42;23.90;42.70
59075;DHT22;44860;53.020;6.738;2023-06-26T14:32:07;24.00;42.60
59075;DHT22;44860;53.020;6.738;2023-06-26T14:34:33;23.90;41.20
59075;DHT22;44860;53.020;6.738;2023-06-26T14:36:59;23.90;41.10
59075;DHT22;44860;53.020;6.738;2023-06-26T14:39:25;23.90;40.60
59075;DHT22;44860;53.020;6.738;2023-06-26T14:41:50;23.90;40.90
59075;DHT22;44860;53.020;6.738;2023-06-26T14:44:16;23.90;41.50
59075;DHT22;44860;53.020;6.738;2023-06-26T14:46:42;23.90;41.10
59075;DHT22;44860;53.020;6.738;2023-06-26T14:49:08;23.90;40.50
59075;DHT22;44860;53.020;6.738;2023-06-26T14:51:34;23.90;39.80
59075;DHT22;44860;53.020;6.738;2023-06-26T14:54:00;23.90;39.90
59075;DHT22;44860;53.020;6.738;2023-06-26T14:56:26;23.80;40.10
59075;DHT22;44860;53.020;6.738;2023-06-26T14:58:52;23.70;40.40
59075;DHT22;44860;53.020;6.738;2023-06-26T15:01:19;23.70;40.10
59075;DHT22;44860;53.020;6.738;2023-06-26T15:03:47;23.60;39.40
59075;DHT22;44860;53.020;6.738;2023-06-26T15:06:13;23.60;39.30
59075;DHT22;44860;53.020;6.738;2023-06-26T15:08:39;23.60;39.70
59075;DHT22;44860;53.020;6.738;2023-06-26T15:11:05;23.70;40.60
59075;DHT22;44860;53.020;6.738;2023-06-26T15:13:30;23.60;40.90
59075;DHT22;44860;53.020;6.738;2023-06-26T15:15:56;23.60;41.50
59075;DHT22;44860;53.020;6.738;2023-06-26T15:18:22;23.50;41.20
59075;DHT22;44860;53.020;6.738;2023-06-26T15:20:48;23.50;40.80
59075;DHT22;44860;53.020;6.738;2023-06-26T15:23:13;23.50;40.40
59075;DHT22;44860;53.020;6.738;2023-06-26T15:25:39;23.40;39.10
59075;DHT22;44860;53.020;6.738;2023-06-26T15:28:08;23.50;39.30
59075;DHT22;44860;53.020;6.738;2023-06-26T15:30:33;23.50;39.10
59075;DHT22;44860;53.020;6.738;2023-06-26T15:32:59;23.50;38.10
59075;DHT22;44860;53.020;6.738;2023-06-26T15:35:25;23.50;38.20
59075;DHT22;44860;53.020;6.738;2023-06-26T15:37:52;23.50;38.50
59075;DHT22;44860;53.020;6.738;2023-06-26T15:40:17;23.50;38.90
59075;DHT22;44860;53.020;6.738;2023-06-26T15:42:47;23.50;39.10
59075;DHT22;44860;53.020;6.738;2023-06-26T15:45:14;23.40;39.10